sensor_id;sensor_type;location;lat;lon;timestamp;P1;durP1;ratioP1;P2;durP2;ratioP2
67995;SDS011;54772;53.544;49.324;2023-08-17T00:01:59;6.20;;;4.82;;
67995;SDS011;54772;53.544;49.324;2023-08-17T00:04:46;6.18;;;4.50;;
67995;SDS011;54772;53.544;49.324;2023-08-17T00:07:32;5.40;;;4.32;;
67995;SDS011;54772;53.544;49.324;2023-08-17T00:10:19;6.35;;;4.97;;
67995;SDS011;54772;53.544;49.324;2023-08-17T00:15:51;8.88;;;4.60;;
67995;SDS011;54772;53.544;49.324;2023-08-17T00:18:38;7.12;;;4.75;;
67995;SDS011;54772;53.544;49.324;2023-08-17T00:21:25;5.85;;;4.22;;
67995;SDS011;54772;53.544;49.324;2023-08-17T00:24:13;6.07;;;4.37;;
67995;SDS011;54772;53.544;49.324;2023-08-17T00:27:05;6.85;;;4.70;;
67995;SDS011;54772;53.544;49.324;2023-08-17T00:29:51;5.65;;;4.32;;
67995;SDS011;54772;53.544;49.324;2023-08-17T00:32:38;7.57;;;4.40;;
67995;SDS011;54772;53.544;49.324;2023-08-17T00:35:24;8.60;;;4.82;;
67995;SDS011;54772;53.544;49.324;2023-08-17T00:38:18;6.43;;;5.18;;
67995;SDS011;54772;53.544;49.324;2023-08-17T00:41:04;7.25;;;4.60;;
67995;SDS011;54772;53.544;49.324;2023-08-17T00:43:52;6.00;;;4.55;;
67995;SDS011;54772;53.544;49.324;2023-08-17T00:46:38;7.07;;;5.00;;
67995;SDS011;54772;53.544;49.324;2023-08-17T00:49:25;7.12;;;5.12;;
67995;SDS011;54772;53.544;49.324;2023-08-17T00:52:11;6.57;;;4.75;;
67995;SDS011;54772;53.544;49.324;2023-08-17T00:55:00;7.25;;;4.93;;
67995;SDS011;54772;53.544;49.324;2023-08-17T00:57:48;7.68;;;5.18;;
67995;SDS011;54772;53.544;49.324;2023-08-17T01:00:39;6.35;;;4.80;;
67995;SDS011;54772;53.544;49.324;2023-08-17T01:03:31;7.50;;;5.03;;
67995;SDS011;54772;53.544;49.324;2023-08-17T01:06:18;6.57;;;4.95;;
67995;SDS011;54772;53.544;49.324;2023-08-17T01:09:07;7.57;;;4.82;;
67995;SDS011;54772;53.544;49.324;2023-08-17T01:12:05;6.50;;;4.65;;
67995;SDS011;54772;53.544;49.324;2023-08-17T01:15:08;10.25;;;4.87;;
67995;SDS011;54772;53.544;49.324;2023-08-17T01:20:57;6.55;;;4.90;;
67995;SDS011;54772;53.544;49.324;2023-08-17T01:23:48;7.10;;;5.35;;
67995;SDS011;54772;53.544;49.324;2023-08-17T01:26:38;8.85;;;6.15;;
67995;SDS011;54772;53.544;49.324;2023-08-17T01:29:32;9.60;;;5.78;;
67995;SDS011;54772;53.544;49.324;2023-08-17T01:32:25;7.60;;;5.47;;
67995;SDS011;54772;53.544;49.324;2023-08-17T01:38:14;7.80;;;4.97;;
67995;SDS011;54772;53.544;49.324;2023-08-17T01:41:20;9.10;;;5.87;;
67995;SDS011;54772;53.544;49.324;2023-08-17T01:44:22;8.48;;;6.25;;
67995;SDS011;54772;53.544;49.324;2023-08-17T01:47:25;7.37;;;5.93;;
67995;SDS011;54772;53.544;49.324;2023-08-17T01:53:36;8.00;;;6.00;;
67995;SDS011;54772;53.544;49.324;2023-08-17T01:56:27;9.35;;;6.25;;
67995;SDS011;54772;53.544;49.324;2023-08-17T01:59:14;7.87;;;5.55;;
67995;SDS011;54772;53.544;49.324;2023-08-17T02:02:12;7.87;;;5.82;;
67995;SDS011;54772;53.544;49.324;2023-08-17T02:05:02;11.30;;;5.75;;
67995;SDS011;54772;53.544;49.324;2023-08-17T02:08:01;8.67;;;5.80;;
67995;SDS011;54772;53.544;49.324;2023-08-17T02:10:52;9.50;;;6.30;;
67995;SDS011;54772;53.544;49.324;2023-08-17T02:13:47;8.77;;;6.30;;
67995;SDS011;54772;53.544;49.324;2023-08-17T02:16:42;8.85;;;6.20;;
67995;SDS011;54772;53.544;49.324;2023-08-17T02:19:37;8.77;;;6.40;;
67995;SDS011;54772;53.544;49.324;2023-08-17T02:22:26;9.98;;;6.95;;
67995;SDS011;54772;53.544;49.324;2023-08-17T02:25:13;11.05;;;6.80;;
67995;SDS011;54772;53.544;49.324;2023-08-17T02:28:09;9.85;;;6.72;;
67995;SDS011;54772;53.544;49.324;2023-08-17T02:30:59;10.18;;;6.85;;
67995;SDS011;54772;53.544;49.324;2023-08-17T02:33:50;11.52;;;6.87;;
67995;SDS011;54772;53.544;49.324;2023-08-17T02:36:51;9.27;;;6.85;;
67995;SDS011;54772;53.544;49.324;2023-08-17T02:39:43;10.10;;;6.93;;
67995;SDS011;54772;53.544;49.324;2023-08-17T02:42:44;10.02;;;6.43;;
67995;SDS011;54772;53.544;49.324;2023-08-17T02:45:36;10.25;;;6.78;;
67995;SDS011;54772;53.544;49.324;2023-08-17T02:48:34;9.60;;;6.75;;
67995;SDS011;54772;53.544;49.324;2023-08-17T02:51:31;10.25;;;6.90;;
67995;SDS011;54772;53.544;49.324;2023-08-17T02:54:25;10.23;;;6.90;;
67995;SDS011;54772;53.544;49.324;2023-08-17T02:57:15;8.20;;;6.47;;
67995;SDS011;54772;53.544;49.324;2023-08-17T03:00:04;9.60;;;7.12;;
67995;SDS011;54772;53.544;49.324;2023-08-17T03:02:54;11.10;;;7.43;;
67995;SDS011;54772;53.544;49.324;2023-08-17T03:05:46;9.55;;;6.97;;
67995;SDS011;54772;53.544;49.324;2023-08-17T03:08:36;11.35;;;7.57;;
67995;SDS011;54772;53.544;49.324;2023-08-17T03:11:29;10.98;;;7.03;;
67995;SDS011;54772;53.544;49.324;2023-08-17T03:14:16;8.10;;;6.07;;
67995;SDS011;54772;53.544;49.324;2023-08-17T03:19:59;8.30;;;6.47;;
67995;SDS011;54772;53.544;49.324;2023-08-17T03:22:53;10.70;;;6.90;;
67995;SDS011;54772;53.544;49.324;2023-08-17T03:25:41;9.13;;;6.47;;
67995;SDS011;54772;53.544;49.324;2023-08-17T03:28:31;9.65;;;6.87;;
67995;SDS011;54772;53.544;49.324;2023-08-17T03:31:19;10.20;;;6.85;;
67995;SDS011;54772;53.544;49.324;2023-08-17T03:34:10;8.98;;;7.07;;
67995;SDS011;54772;53.544;49.324;2023-08-17T03:36:59;9.27;;;6.82;;
67995;SDS011;54772;53.544;49.324;2023-08-17T03:39:47;8.98;;;7.05;;
67995;SDS011;54772;53.544;49.324;2023-08-17T03:42:33;10.90;;;7.03;;
67995;SDS011;54772;53.544;49.324;2023-08-17T03:48:08;9.95;;;7.37;;
67995;SDS011;54772;53.544;49.324;2023-08-17T03:51:00;11.43;;;7.03;;
67995;SDS011;54772;53.544;49.324;2023-08-17T03:53:53;8.80;;;7.53;;
67995;SDS011;54772;53.544;49.324;2023-08-17T03:56:42;7.95;;;6.37;;
67995;SDS011;54772;53.544;49.324;2023-08-17T03:59:32;9.00;;;6.97;;
67995;SDS011;54772;53.544;49.324;2023-08-17T04:02:32;8.48;;;6.57;;
67995;SDS011;54772;53.544;49.324;2023-08-17T04:05:22;9.65;;;7.15;;
67995;SDS011;54772;53.544;49.324;2023-08-17T04:08:11;10.27;;;6.50;;
67995;SDS011;54772;53.544;49.324;2023-08-17T04:10:58;8.57;;;7.12;;
67995;SDS011;54772;53.544;49.324;2023-08-17T04:13:44;9.07;;;6.40;;
67995;SDS011;54772;53.544;49.324;2023-08-17T04:16:33;9.40;;;6.75;;
67995;SDS011;54772;53.544;49.324;2023-08-17T04:19:20;10.02;;;7.55;;
67995;SDS011;54772;53.544;49.324;2023-08-17T04:22:10;8.90;;;6.85;;
67995;SDS011;54772;53.544;49.324;2023-08-17T04:24:58;9.05;;;7.00;;
67995;SDS011;54772;53.544;49.324;2023-08-17T04:27:48;9.13;;;6.95;;
67995;SDS011;54772;53.544;49.324;2023-08-17T04:30:34;10.18;;;7.50;;
67995;SDS011;54772;53.544;49.324;2023-08-17T04:33:23;9.48;;;7.37;;
67995;SDS011;54772;53.544;49.324;2023-08-17T04:36:15;8.63;;;6.32;;
67995;SDS011;54772;53.544;49.324;2023-08-17T04:39:02;7.37;;;6.40;;
67995;SDS011;54772;53.544;49.324;2023-08-17T04:41:51;8.23;;;6.68;;
67995;SDS011;54772;53.544;49.324;2023-08-17T04:44:41;8.15;;;6.65;;
67995;SDS011;54772;53.544;49.324;2023-08-17T04:47:36;7.68;;;5.68;;
67995;SDS011;54772;53.544;49.324;2023-08-17T04:50:24;8.48;;;6.55;;
67995;SDS011;54772;53.544;49.324;2023-08-17T04:53:11;12.10;;;7.78;;
67995;SDS011;54772;53.544;49.324;2023-08-17T04:56:02;8.23;;;6.12;;
67995;SDS011;54772;53.544;49.324;2023-08-17T04:58:52;11.23;;;6.45;;
67995;SDS011;54772;53.544;49.324;2023-08-17T05:01:38;6.75;;;5.50;;
67995;SDS011;54772;53.544;49.324;2023-08-17T05:04:24;8.90;;;5.32;;
67995;SDS011;54772;53.544;49.324;2023-08-17T05:07:15;6.25;;;5.15;;
67995;SDS011;54772;53.544;49.324;2023-08-17T05:12:46;9.48;;;6.05;;
67995;SDS011;54772;53.544;49.324;2023-08-17T05:15:33;8.23;;;6.20;;
67995;SDS011;54772;53.544;49.324;2023-08-17T05:18:21;8.35;;;6.80;;
67995;SDS011;54772;53.544;49.324;2023-08-17T05:21:08;9.35;;;6.20;;
67995;SDS011;54772;53.544;49.324;2023-08-17T05:23:55;8.65;;;6.30;;
67995;SDS011;54772;53.544;49.324;2023-08-17T05:26:41;8.48;;;5.80;;
67995;SDS011;54772;53.544;49.324;2023-08-17T05:29:30;6.70;;;5.50;;
67995;SDS011;54772;53.544;49.324;2023-08-17T05:32:18;8.10;;;5.78;;
67995;SDS011;54772;53.544;49.324;2023-08-17T05:35:05;8.68;;;5.55;;
67995;SDS011;54772;53.544;49.324;2023-08-17T05:37:52;10.50;;;6.95;;
67995;SDS011;54772;53.544;49.324;2023-08-17T05:40:41;8.65;;;5.70;;
67995;SDS011;54772;53.544;49.324;2023-08-17T05:43:29;6.82;;;5.00;;
67995;SDS011;54772;53.544;49.324;2023-08-17T05:49:02;6.50;;;4.87;;
67995;SDS011;54772;53.544;49.324;2023-08-17T05:51:49;8.52;;;5.82;;
67995;SDS011;54772;53.544;49.324;2023-08-17T05:54:35;9.52;;;6.07;;
67995;SDS011;54772;53.544;49.324;2023-08-17T05:57:21;7.28;;;5.30;;
67995;SDS011;54772;53.544;49.324;2023-08-17T06:00:08;10.05;;;6.12;;
67995;SDS011;54772;53.544;49.324;2023-08-17T06:02:57;7.50;;;6.05;;
67995;SDS011;54772;53.544;49.324;2023-08-17T06:05:50;7.85;;;5.57;;
67995;SDS011;54772;53.544;49.324;2023-08-17T06:08:38;8.55;;;5.82;;
67995;SDS011;54772;53.544;49.324;2023-08-17T06:11:25;10.73;;;5.47;;
67995;SDS011;54772;53.544;49.324;2023-08-17T06:14:12;7.53;;;5.40;;
67995;SDS011;54772;53.544;49.324;2023-08-17T06:17:01;7.87;;;4.87;;
67995;SDS011;54772;53.544;49.324;2023-08-17T06:19:48;7.55;;;5.75;;
67995;SDS011;54772;53.544;49.324;2023-08-17T06:22:34;12.98;;;5.90;;
67995;SDS011;54772;53.544;49.324;2023-08-17T06:28:07;9.47;;;5.37;;
67995;SDS011;54772;53.544;49.324;2023-08-17T06:30:54;8.27;;;5.53;;
67995;SDS011;54772;53.544;49.324;2023-08-17T06:33:41;5.47;;;4.22;;
67995;SDS011;54772;53.544;49.324;2023-08-17T06:36:31;7.30;;;4.50;;
67995;SDS011;54772;53.544;49.324;2023-08-17T06:39:20;6.50;;;4.45;;
67995;SDS011;54772;53.544;49.324;2023-08-17T06:44:53;11.73;;;5.70;;
67995;SDS011;54772;53.544;49.324;2023-08-17T06:53:13;7.53;;;4.80;;
67995;SDS011;54772;53.544;49.324;2023-08-17T06:56:00;8.73;;;5.18;;
67995;SDS011;54772;53.544;49.324;2023-08-17T06:58:47;6.25;;;4.53;;
67995;SDS011;54772;53.544;49.324;2023-08-17T07:01:34;6.57;;;4.80;;
67995;SDS011;54772;53.544;49.324;2023-08-17T07:04:20;8.98;;;5.55;;
67995;SDS011;54772;53.544;49.324;2023-08-17T07:07:06;5.85;;;4.32;;
67995;SDS011;54772;53.544;49.324;2023-08-17T07:09:53;10.15;;;5.20;;
67995;SDS011;54772;53.544;49.324;2023-08-17T07:12:40;6.93;;;4.32;;
67995;SDS011;54772;53.544;49.324;2023-08-17T07:15:27;9.45;;;5.30;;
67995;SDS011;54772;53.544;49.324;2023-08-17T07:18:13;8.55;;;5.50;;
67995;SDS011;54772;53.544;49.324;2023-08-17T07:20:59;10.18;;;5.45;;
67995;SDS011;54772;53.544;49.324;2023-08-17T07:23:46;8.32;;;5.50;;
67995;SDS011;54772;53.544;49.324;2023-08-17T07:26:33;7.80;;;6.53;;
67995;SDS011;54772;53.544;49.324;2023-08-17T07:29:19;6.80;;;4.50;;
67995;SDS011;54772;53.544;49.324;2023-08-17T07:32:06;8.00;;;5.25;;
67995;SDS011;54772;53.544;49.324;2023-08-17T07:34:53;6.20;;;5.07;;
67995;SDS011;54772;53.544;49.324;2023-08-17T07:37:39;6.35;;;4.70;;
67995;SDS011;54772;53.544;49.324;2023-08-17T07:40:26;7.90;;;4.68;;
67995;SDS011;54772;53.544;49.324;2023-08-17T07:45:58;10.70;;;4.55;;
67995;SDS011;54772;53.544;49.324;2023-08-17T07:48:45;7.62;;;4.28;;
67995;SDS011;54772;53.544;49.324;2023-08-17T07:51:32;7.05;;;4.55;;
67995;SDS011;54772;53.544;49.324;2023-08-17T07:54:18;9.50;;;5.10;;
67995;SDS011;54772;53.544;49.324;2023-08-17T07:57:05;11.63;;;5.07;;
67995;SDS011;54772;53.544;49.324;2023-08-17T08:02:39;7.03;;;4.50;;
67995;SDS011;54772;53.544;49.324;2023-08-17T08:05:26;6.10;;;4.32;;
67995;SDS011;54772;53.544;49.324;2023-08-17T08:08:12;7.22;;;4.10;;
67995;SDS011;54772;53.544;49.324;2023-08-17T08:10:59;7.80;;;4.40;;
67995;SDS011;54772;53.544;49.324;2023-08-17T08:13:46;4.22;;;3.33;;
67995;SDS011;54772;53.544;49.324;2023-08-17T08:16:33;8.18;;;4.20;;
67995;SDS011;54772;53.544;49.324;2023-08-17T08:19:21;4.70;;;3.70;;
67995;SDS011;54772;53.544;49.324;2023-08-17T08:22:08;7.57;;;3.50;;
67995;SDS011;54772;53.544;49.324;2023-08-17T08:24:54;6.20;;;3.80;;
67995;SDS011;54772;53.544;49.324;2023-08-17T08:27:41;6.03;;;3.75;;
67995;SDS011;54772;53.544;49.324;2023-08-17T08:30:27;7.82;;;3.53;;
67995;SDS011;54772;53.544;49.324;2023-08-17T08:33:14;7.97;;;4.15;;
67995;SDS011;54772;53.544;49.324;2023-08-17T08:38:47;6.62;;;3.50;;
67995;SDS011;54772;53.544;49.324;2023-08-17T08:44:20;5.18;;;3.70;;
67995;SDS011;54772;53.544;49.324;2023-08-17T08:47:06;6.53;;;3.60;;
67995;SDS011;54772;53.544;49.324;2023-08-17T08:52:58;4.72;;;3.25;;
67995;SDS011;54772;53.544;49.324;2023-08-17T08:55:54;5.75;;;3.58;;
67995;SDS011;54772;53.544;49.324;2023-08-17T08:58:43;7.18;;;4.30;;
67995;SDS011;54772;53.544;49.324;2023-08-17T09:01:30;7.45;;;3.45;;
67995;SDS011;54772;53.544;49.324;2023-08-17T09:04:17;5.65;;;3.78;;
67995;SDS011;54772;53.544;49.324;2023-08-17T09:07:06;5.70;;;3.83;;
67995;SDS011;54772;53.544;49.324;2023-08-17T09:09:54;5.75;;;3.72;;
67995;SDS011;54772;53.544;49.324;2023-08-17T09:12:42;7.85;;;3.58;;
67995;SDS011;54772;53.544;49.324;2023-08-17T09:15:30;7.18;;;4.07;;
67995;SDS011;54772;53.544;49.324;2023-08-17T09:18:17;7.25;;;4.22;;
67995;SDS011;54772;53.544;49.324;2023-08-17T09:21:04;8.68;;;4.18;;
67995;SDS011;54772;53.544;49.324;2023-08-17T09:23:54;5.53;;;4.55;;
67995;SDS011;54772;53.544;49.324;2023-08-17T09:26:41;5.28;;;3.97;;
67995;SDS011;54772;53.544;49.324;2023-08-17T09:29:30;6.55;;;4.68;;
67995;SDS011;54772;53.544;49.324;2023-08-17T09:32:21;6.00;;;3.70;;
67995;SDS011;54772;53.544;49.324;2023-08-17T09:35:08;5.12;;;3.95;;
67995;SDS011;54772;53.544;49.324;2023-08-17T09:37:55;6.87;;;3.70;;
67995;SDS011;54772;53.544;49.324;2023-08-17T09:40:42;4.57;;;3.53;;
67995;SDS011;54772;53.544;49.324;2023-08-17T09:43:28;8.35;;;3.50;;
67995;SDS011;54772;53.544;49.324;2023-08-17T09:46:18;5.85;;;3.72;;
67995;SDS011;54772;53.544;49.324;2023-08-17T09:49:05;4.97;;;3.58;;
67995;SDS011;54772;53.544;49.324;2023-08-17T09:51:54;6.07;;;4.00;;
67995;SDS011;54772;53.544;49.324;2023-08-17T09:54:42;4.53;;;3.40;;
67995;SDS011;54772;53.544;49.324;2023-08-17T09:57:31;7.32;;;3.80;;
67995;SDS011;54772;53.544;49.324;2023-08-17T10:00:19;8.07;;;3.72;;
67995;SDS011;54772;53.544;49.324;2023-08-17T10:03:08;5.65;;;3.30;;
67995;SDS011;54772;53.544;49.324;2023-08-17T10:05:58;6.60;;;3.60;;
67995;SDS011;54772;53.544;49.324;2023-08-17T10:08:55;5.90;;;3.92;;
67995;SDS011;54772;53.544;49.324;2023-08-17T10:11:47;7.20;;;4.20;;
67995;SDS011;54772;53.544;49.324;2023-08-17T10:14:36;5.10;;;3.67;;
67995;SDS011;54772;53.544;49.324;2023-08-17T10:17:27;5.60;;;3.70;;
67995;SDS011;54772;53.544;49.324;2023-08-17T10:20:19;7.40;;;3.97;;
67995;SDS011;54772;53.544;49.324;2023-08-17T10:23:10;7.30;;;4.00;;
67995;SDS011;54772;53.544;49.324;2023-08-17T10:26:05;5.87;;;3.75;;
67995;SDS011;54772;53.544;49.324;2023-08-17T10:28:53;7.65;;;4.00;;
67995;SDS011;54772;53.544;49.324;2023-08-17T10:31:43;7.40;;;3.72;;
67995;SDS011;54772;53.544;49.324;2023-08-17T10:34:31;6.18;;;3.80;;
67995;SDS011;54772;53.544;49.324;2023-08-17T10:37:22;9.60;;;4.30;;
67995;SDS011;54772;53.544;49.324;2023-08-17T10:40:11;5.70;;;4.07;;
67995;SDS011;54772;53.544;49.324;2023-08-17T10:43:02;5.03;;;3.90;;
67995;SDS011;54772;53.544;49.324;2023-08-17T10:45:49;7.20;;;3.87;;
67995;SDS011;54772;53.544;49.324;2023-08-17T10:48:36;6.47;;;3.78;;
67995;SDS011;54772;53.544;49.324;2023-08-17T10:54:13;7.50;;;4.00;;
67995;SDS011;54772;53.544;49.324;2023-08-17T10:57:00;5.57;;;3.78;;
67995;SDS011;54772;53.544;49.324;2023-08-17T11:03:07;4.85;;;3.50;;
67995;SDS011;54772;53.544;49.324;2023-08-17T11:06:18;5.20;;;4.28;;
67995;SDS011;54772;53.544;49.324;2023-08-17T11:09:07;5.90;;;4.20;;
67995;SDS011;54772;53.544;49.324;2023-08-17T11:11:54;5.30;;;3.85;;
67995;SDS011;54772;53.544;49.324;2023-08-17T11:14:44;5.47;;;4.10;;
67995;SDS011;54772;53.544;49.324;2023-08-17T11:17:35;5.35;;;4.03;;
67995;SDS011;54772;53.544;49.324;2023-08-17T11:20:22;7.65;;;3.72;;
67995;SDS011;54772;53.544;49.324;2023-08-17T11:23:11;7.05;;;3.80;;
67995;SDS011;54772;53.544;49.324;2023-08-17T11:25:59;6.70;;;3.87;;
67995;SDS011;54772;53.544;49.324;2023-08-17T11:28:46;4.45;;;3.60;;
67995;SDS011;54772;53.544;49.324;2023-08-17T11:31:39;5.95;;;3.65;;
67995;SDS011;54772;53.544;49.324;2023-08-17T11:34:26;5.45;;;4.07;;
67995;SDS011;54772;53.544;49.324;2023-08-17T11:37:17;7.68;;;3.75;;
67995;SDS011;54772;53.544;49.324;2023-08-17T11:40:06;6.20;;;4.07;;
67995;SDS011;54772;53.544;49.324;2023-08-17T11:42:57;7.85;;;4.35;;
67995;SDS011;54772;53.544;49.324;2023-08-17T11:45:44;6.75;;;4.45;;
67995;SDS011;54772;53.544;49.324;2023-08-17T11:48:31;6.03;;;4.75;;
67995;SDS011;54772;53.544;49.324;2023-08-17T11:51:31;5.53;;;4.47;;
67995;SDS011;54772;53.544;49.324;2023-08-17T11:54:19;6.87;;;4.72;;
67995;SDS011;54772;53.544;49.324;2023-08-17T11:57:07;7.20;;;5.07;;
67995;SDS011;54772;53.544;49.324;2023-08-17T11:59:54;7.85;;;5.10;;
67995;SDS011;54772;53.544;49.324;2023-08-17T12:02:41;7.68;;;4.70;;
67995;SDS011;54772;53.544;49.324;2023-08-17T12:05:28;6.57;;;4.22;;
67995;SDS011;54772;53.544;49.324;2023-08-17T12:08:17;5.22;;;4.00;;
67995;SDS011;54772;53.544;49.324;2023-08-17T12:11:04;5.85;;;4.28;;
67995;SDS011;54772;53.544;49.324;2023-08-17T12:13:53;5.78;;;4.32;;
67995;SDS011;54772;53.544;49.324;2023-08-17T12:16:47;6.10;;;4.85;;
67995;SDS011;54772;53.544;49.324;2023-08-17T12:19:33;7.32;;;4.70;;
67995;SDS011;54772;53.544;49.324;2023-08-17T12:22:25;6.70;;;4.30;;
67995;SDS011;54772;53.544;49.324;2023-08-17T12:25:12;5.70;;;3.85;;
67995;SDS011;54772;53.544;49.324;2023-08-17T12:27:59;6.10;;;3.90;;
67995;SDS011;54772;53.544;49.324;2023-08-17T12:30:57;5.07;;;3.80;;
67995;SDS011;54772;53.544;49.324;2023-08-17T12:33:47;6.15;;;4.00;;
67995;SDS011;54772;53.544;49.324;2023-08-17T12:36:34;6.10;;;4.28;;
67995;SDS011;54772;53.544;49.324;2023-08-17T12:39:22;5.37;;;4.28;;
67995;SDS011;54772;53.544;49.324;2023-08-17T12:42:09;5.30;;;3.95;;
67995;SDS011;54772;53.544;49.324;2023-08-17T12:44:56;6.78;;;3.90;;
67995;SDS011;54772;53.544;49.324;2023-08-17T12:47:42;5.57;;;3.92;;
67995;SDS011;54772;53.544;49.324;2023-08-17T12:50:29;6.05;;;4.15;;
67995;SDS011;54772;53.544;49.324;2023-08-17T12:56:02;5.90;;;3.60;;
67995;SDS011;54772;53.544;49.324;2023-08-17T12:58:49;6.25;;;3.45;;
67995;SDS011;54772;53.544;49.324;2023-08-17T13:01:36;6.40;;;3.65;;
67995;SDS011;54772;53.544;49.324;2023-08-17T13:04:23;5.32;;;3.58;;
67995;SDS011;54772;53.544;49.324;2023-08-17T13:07:12;6.00;;;4.00;;
67995;SDS011;54772;53.544;49.324;2023-08-17T13:10:03;5.75;;;4.62;;
67995;SDS011;54772;53.544;49.324;2023-08-17T13:12:52;6.75;;;4.12;;
67995;SDS011;54772;53.544;49.324;2023-08-17T13:15:41;5.97;;;4.62;;
67995;SDS011;54772;53.544;49.324;2023-08-17T13:18:30;5.82;;;3.60;;
67995;SDS011;54772;53.544;49.324;2023-08-17T13:21:19;7.97;;;3.78;;
67995;SDS011;54772;53.544;49.324;2023-08-17T13:24:06;4.85;;;3.40;;
67995;SDS011;54772;53.544;49.324;2023-08-17T13:26:53;4.82;;;3.35;;
67995;SDS011;54772;53.544;49.324;2023-08-17T13:29:45;5.70;;;3.60;;
67995;SDS011;54772;53.544;49.324;2023-08-17T13:32:31;5.12;;;3.47;;
67995;SDS011;54772;53.544;49.324;2023-08-17T13:35:22;6.53;;;4.00;;
67995;SDS011;54772;53.544;49.324;2023-08-17T13:38:16;10.15;;;4.05;;
67995;SDS011;54772;53.544;49.324;2023-08-17T13:41:04;4.37;;;3.25;;
67995;SDS011;54772;53.544;49.324;2023-08-17T13:43:50;6.60;;;3.80;;
67995;SDS011;54772;53.544;49.324;2023-08-17T13:46:45;3.85;;;3.30;;
67995;SDS011;54772;53.544;49.324;2023-08-17T13:49:36;4.93;;;3.40;;
67995;SDS011;54772;53.544;49.324;2023-08-17T13:52:26;4.30;;;3.12;;
67995;SDS011;54772;53.544;49.324;2023-08-17T13:57:59;4.50;;;2.80;;
67995;SDS011;54772;53.544;49.324;2023-08-17T14:00:48;3.87;;;3.00;;
67995;SDS011;54772;53.544;49.324;2023-08-17T14:03:35;7.68;;;3.35;;
67995;SDS011;54772;53.544;49.324;2023-08-17T14:06:22;5.65;;;3.42;;
67995;SDS011;54772;53.544;49.324;2023-08-17T14:09:12;6.10;;;3.60;;
67995;SDS011;54772;53.544;49.324;2023-08-17T14:11:58;4.32;;;3.30;;
67995;SDS011;54772;53.544;49.324;2023-08-17T14:14:51;5.15;;;3.10;;
67995;SDS011;54772;53.544;49.324;2023-08-17T14:17:43;4.45;;;3.53;;
67995;SDS011;54772;53.544;49.324;2023-08-17T14:20:32;6.25;;;4.25;;
67995;SDS011;54772;53.544;49.324;2023-08-17T14:23:23;7.68;;;4.00;;
67995;SDS011;54772;53.544;49.324;2023-08-17T14:26:10;7.40;;;4.30;;
67995;SDS011;54772;53.544;49.324;2023-08-17T14:28:57;6.65;;;4.30;;
67995;SDS011;54772;53.544;49.324;2023-08-17T14:31:46;5.50;;;3.95;;
67995;SDS011;54772;53.544;49.324;2023-08-17T14:34:34;9.43;;;3.95;;
67995;SDS011;54772;53.544;49.324;2023-08-17T14:37:23;9.57;;;5.50;;
67995;SDS011;54772;53.544;49.324;2023-08-17T14:40:14;9.68;;;5.70;;
67995;SDS011;54772;53.544;49.324;2023-08-17T14:43:02;9.07;;;5.18;;
67995;SDS011;54772;53.544;49.324;2023-08-17T14:51:28;6.05;;;4.57;;
67995;SDS011;54772;53.544;49.324;2023-08-17T14:54:22;10.05;;;4.57;;
67995;SDS011;54772;53.544;49.324;2023-08-17T14:57:11;10.30;;;5.15;;
67995;SDS011;54772;53.544;49.324;2023-08-17T15:00:01;7.43;;;4.60;;
67995;SDS011;54772;53.544;49.324;2023-08-17T15:02:49;9.43;;;5.05;;
67995;SDS011;54772;53.544;49.324;2023-08-17T15:05:38;8.48;;;5.20;;
67995;SDS011;54772;53.544;49.324;2023-08-17T15:11:11;7.23;;;5.27;;
67995;SDS011;54772;53.544;49.324;2023-08-17T15:13:58;8.50;;;5.05;;
67995;SDS011;54772;53.544;49.324;2023-08-17T15:16:48;9.13;;;4.68;;
67995;SDS011;54772;53.544;49.324;2023-08-17T15:19:42;9.40;;;5.12;;
67995;SDS011;54772;53.544;49.324;2023-08-17T15:22:31;14.60;;;6.18;;
67995;SDS011;54772;53.544;49.324;2023-08-17T15:25:25;9.93;;;6.03;;
67995;SDS011;54772;53.544;49.324;2023-08-17T15:28:14;11.63;;;5.68;;
67995;SDS011;54772;53.544;49.324;2023-08-17T15:31:03;10.77;;;6.47;;
67995;SDS011;54772;53.544;49.324;2023-08-17T15:33:54;13.32;;;6.72;;
67995;SDS011;54772;53.544;49.324;2023-08-17T15:36:42;12.65;;;8.05;;
67995;SDS011;54772;53.544;49.324;2023-08-17T15:39:34;15.57;;;8.63;;
67995;SDS011;54772;53.544;49.324;2023-08-17T15:42:21;16.48;;;9.90;;
67995;SDS011;54772;53.544;49.324;2023-08-17T15:45:08;17.95;;;10.10;;
67995;SDS011;54772;53.544;49.324;2023-08-17T15:47:54;15.45;;;9.57;;
67995;SDS011;54772;53.544;49.324;2023-08-17T15:50:42;17.27;;;8.63;;
67995;SDS011;54772;53.544;49.324;2023-08-17T15:53:30;14.10;;;8.57;;
67995;SDS011;54772;53.544;49.324;2023-08-17T15:56:18;14.45;;;9.32;;
67995;SDS011;54772;53.544;49.324;2023-08-17T15:59:04;16.60;;;10.35;;
67995;SDS011;54772;53.544;49.324;2023-08-17T16:01:57;16.05;;;9.23;;
67995;SDS011;54772;53.544;49.324;2023-08-17T16:04:43;21.37;;;11.48;;
67995;SDS011;54772;53.544;49.324;2023-08-17T16:07:31;18.98;;;10.93;;
67995;SDS011;54772;53.544;49.324;2023-08-17T16:10:17;19.52;;;10.80;;
67995;SDS011;54772;53.544;49.324;2023-08-17T16:13:04;18.17;;;10.63;;
67995;SDS011;54772;53.544;49.324;2023-08-17T16:15:51;15.48;;;9.23;;
67995;SDS011;54772;53.544;49.324;2023-08-17T16:18:37;15.90;;;9.18;;
67995;SDS011;54772;53.544;49.324;2023-08-17T16:21:49;15.52;;;9.48;;
67995;SDS011;54772;53.544;49.324;2023-08-17T16:24:41;18.15;;;11.10;;
67995;SDS011;54772;53.544;49.324;2023-08-17T16:27:30;18.83;;;11.20;;
67995;SDS011;54772;53.544;49.324;2023-08-17T16:30:22;19.37;;;11.65;;
67995;SDS011;54772;53.544;49.324;2023-08-17T16:33:12;22.05;;;12.68;;
67995;SDS011;54772;53.544;49.324;2023-08-17T16:35:59;19.08;;;11.30;;
67995;SDS011;54772;53.544;49.324;2023-08-17T16:38:49;16.08;;;9.57;;
67995;SDS011;54772;53.544;49.324;2023-08-17T16:41:36;17.77;;;8.98;;
67995;SDS011;54772;53.544;49.324;2023-08-17T16:44:24;11.32;;;7.32;;
67995;SDS011;54772;53.544;49.324;2023-08-17T16:47:13;11.50;;;7.70;;
67995;SDS011;54772;53.544;49.324;2023-08-17T16:50:00;14.40;;;8.07;;
67995;SDS011;54772;53.544;49.324;2023-08-17T16:52:47;11.77;;;7.70;;
67995;SDS011;54772;53.544;49.324;2023-08-17T16:55:39;11.23;;;7.35;;
67995;SDS011;54772;53.544;49.324;2023-08-17T16:58:25;11.38;;;7.35;;
67995;SDS011;54772;53.544;49.324;2023-08-17T17:01:12;9.20;;;6.82;;
67995;SDS011;54772;53.544;49.324;2023-08-17T17:04:01;10.05;;;6.72;;
67995;SDS011;54772;53.544;49.324;2023-08-17T17:06:57;10.13;;;6.25;;
67995;SDS011;54772;53.544;49.324;2023-08-17T17:09:45;11.20;;;6.65;;
67995;SDS011;54772;53.544;49.324;2023-08-17T17:12:33;10.55;;;5.93;;
67995;SDS011;54772;53.544;49.324;2023-08-17T17:15:22;10.15;;;5.87;;
67995;SDS011;54772;53.544;49.324;2023-08-17T17:18:09;9.98;;;6.47;;
67995;SDS011;54772;53.544;49.324;2023-08-17T17:20:55;8.52;;;6.43;;
67995;SDS011;54772;53.544;49.324;2023-08-17T17:26:31;8.90;;;6.00;;
67995;SDS011;54772;53.544;49.324;2023-08-17T17:29:21;11.00;;;5.78;;
67995;SDS011;54772;53.544;49.324;2023-08-17T17:32:08;8.00;;;5.60;;
67995;SDS011;54772;53.544;49.324;2023-08-17T17:34:57;8.02;;;5.78;;
67995;SDS011;54772;53.544;49.324;2023-08-17T17:37:44;8.35;;;5.65;;
67995;SDS011;54772;53.544;49.324;2023-08-17T17:40:33;8.48;;;6.12;;
67995;SDS011;54772;53.544;49.324;2023-08-17T17:43:22;7.10;;;5.15;;
67995;SDS011;54772;53.544;49.324;2023-08-17T17:51:43;7.75;;;4.85;;
67995;SDS011;54772;53.544;49.324;2023-08-17T17:54:33;9.98;;;5.40;;
67995;SDS011;54772;53.544;49.324;2023-08-17T17:57:13;10.43;;;5.10;;